sensor_id;sensor_type;location;lat;lon;timestamp;P1;durP1;ratioP1;P2;durP2;ratioP2
49384;SDS011;36795;45.028;38.968;2023-08-30T00:02:07;20.37;;;3.97;;
49384;SDS011;36795;45.028;38.968;2023-08-30T00:04:57;16.95;;;3.75;;
49384;SDS011;36795;45.028;38.968;2023-08-30T00:07:47;20.80;;;4.50;;
49384;SDS011;36795;45.028;38.968;2023-08-30T00:10:33;19.05;;;3.95;;
49384;SDS011;36795;45.028;38.968;2023-08-30T00:13:19;18.92;;;4.07;;
49384;SDS011;36795;45.028;38.968;2023-08-30T00:16:06;18.70;;;3.85;;
49384;SDS011;36795;45.028;38.968;2023-08-30T00:18:51;19.55;;;3.53;;
49384;SDS011;36795;45.028;38.968;2023-08-30T00:21:37;17.40;;;3.75;;
49384;SDS011;36795;45.028;38.968;2023-08-30T00:24:23;17.23;;;3.37;;
49384;SDS011;36795;45.028;38.968;2023-08-30T00:27:09;17.98;;;4.45;;
49384;SDS011;36795;45.028;38.968;2023-08-30T00:29:55;18.73;;;3.50;;
49384;SDS011;36795;45.028;38.968;2023-08-30T00:32:41;19.45;;;3.65;;
49384;SDS011;36795;45.028;38.968;2023-08-30T00:35:27;15.75;;;3.08;;
49384;SDS011;36795;45.028;38.968;2023-08-30T00:38:14;17.12;;;3.45;;
49384;SDS011;36795;45.028;38.968;2023-08-30T00:40:59;18.87;;;3.33;;
49384;SDS011;36795;45.028;38.968;2023-08-30T00:43:46;17.75;;;3.25;;
49384;SDS011;36795;45.028;38.968;2023-08-30T00:46:34;16.62;;;2.97;;
49384;SDS011;36795;45.028;38.968;2023-08-30T00:49:21;20.37;;;3.30;;
49384;SDS011;36795;45.028;38.968;2023-08-30T00:52:07;20.70;;;3.20;;
49384;SDS011;36795;45.028;38.968;2023-08-30T00:54:55;16.12;;;2.92;;
49384;SDS011;36795;45.028;38.968;2023-08-30T00:57:41;16.48;;;3.33;;
49384;SDS011;36795;45.028;38.968;2023-08-30T01:00:28;18.12;;;3.47;;
49384;SDS011;36795;45.028;38.968;2023-08-30T01:03:15;16.35;;;3.30;;
49384;SDS011;36795;45.028;38.968;2023-08-30T01:06:02;16.70;;;3.37;;
49384;SDS011;36795;45.028;38.968;2023-08-30T01:08:48;10.07;;;2.40;;
49384;SDS011;36795;45.028;38.968;2023-08-30T01:11:43;15.07;;;3.03;;
49384;SDS011;36795;45.028;38.968;2023-08-30T01:17:30;16.62;;;3.10;;
49384;SDS011;36795;45.028;38.968;2023-08-30T01:20:18;19.77;;;3.60;;
49384;SDS011;36795;45.028;38.968;2023-08-30T01:23:12;19.52;;;3.40;;
49384;SDS011;36795;45.028;38.968;2023-08-30T01:26:24;21.67;;;3.70;;
49384;SDS011;36795;45.028;38.968;2023-08-30T01:29:36;18.05;;;3.72;;
49384;SDS011;36795;45.028;38.968;2023-08-30T01:32:24;20.70;;;3.08;;
49384;SDS011;36795;45.028;38.968;2023-08-30T01:35:11;20.00;;;3.17;;
49384;SDS011;36795;45.028;38.968;2023-08-30T01:38:05;19.35;;;3.62;;
49384;SDS011;36795;45.028;38.968;2023-08-30T01:40:53;20.98;;;4.10;;
49384;SDS011;36795;45.028;38.968;2023-08-30T01:43:42;16.37;;;3.53;;
49384;SDS011;36795;45.028;38.968;2023-08-30T01:46:28;19.77;;;3.90;;
49384;SDS011;36795;45.028;38.968;2023-08-30T01:49:15;16.20;;;3.42;;
49384;SDS011;36795;45.028;38.968;2023-08-30T01:52:02;21.67;;;4.87;;
49384;SDS011;36795;45.028;38.968;2023-08-30T01:54:48;18.73;;;3.83;;
49384;SDS011;36795;45.028;38.968;2023-08-30T01:57:37;21.00;;;4.20;;
49384;SDS011;36795;45.028;38.968;2023-08-30T02:00:23;20.08;;;4.50;;
49384;SDS011;36795;45.028;38.968;2023-08-30T02:03:11;21.98;;;4.28;;
49384;SDS011;36795;45.028;38.968;2023-08-30T02:06:06;25.33;;;4.50;;
49384;SDS011;36795;45.028;38.968;2023-08-30T02:09:16;24.58;;;4.32;;
49384;SDS011;36795;45.028;38.968;2023-08-30T02:12:07;20.92;;;4.50;;
49384;SDS011;36795;45.028;38.968;2023-08-30T02:15:00;22.58;;;4.53;;
49384;SDS011;36795;45.028;38.968;2023-08-30T02:17:48;24.23;;;4.90;;
49384;SDS011;36795;45.028;38.968;2023-08-30T02:20:35;20.17;;;4.68;;
49384;SDS011;36795;45.028;38.968;2023-08-30T02:23:25;18.60;;;4.95;;
49384;SDS011;36795;45.028;38.968;2023-08-30T02:26:10;24.85;;;5.45;;
49384;SDS011;36795;45.028;38.968;2023-08-30T02:28:57;22.15;;;5.05;;
49384;SDS011;36795;45.028;38.968;2023-08-30T02:31:43;27.37;;;4.87;;
49384;SDS011;36795;45.028;38.968;2023-08-30T02:34:30;23.85;;;5.32;;
49384;SDS011;36795;45.028;38.968;2023-08-30T02:37:16;27.92;;;5.78;;
49384;SDS011;36795;45.028;38.968;2023-08-30T02:40:02;25.33;;;5.10;;
49384;SDS011;36795;45.028;38.968;2023-08-30T02:42:48;23.02;;;5.10;;
49384;SDS011;36795;45.028;38.968;2023-08-30T02:45:35;26.10;;;6.45;;
49384;SDS011;36795;45.028;38.968;2023-08-30T02:48:20;26.23;;;5.75;;
49384;SDS011;36795;45.028;38.968;2023-08-30T02:51:07;31.15;;;5.55;;
49384;SDS011;36795;45.028;38.968;2023-08-30T02:53:53;29.33;;;8.63;;
49384;SDS011;36795;45.028;38.968;2023-08-30T02:56:40;24.23;;;6.07;;
49384;SDS011;36795;45.028;38.968;2023-08-30T02:59:28;24.45;;;5.57;;
49384;SDS011;36795;45.028;38.968;2023-08-30T03:02:14;25.40;;;5.05;;
49384;SDS011;36795;45.028;38.968;2023-08-30T03:05:00;20.58;;;5.43;;
49384;SDS011;36795;45.028;38.968;2023-08-30T03:07:47;24.92;;;5.00;;
49384;SDS011;36795;45.028;38.968;2023-08-30T03:10:33;24.77;;;5.45;;
49384;SDS011;36795;45.028;38.968;2023-08-30T03:13:19;23.67;;;4.53;;
49384;SDS011;36795;45.028;38.968;2023-08-30T03:16:12;22.13;;;5.20;;
49384;SDS011;36795;45.028;38.968;2023-08-30T03:18:59;25.70;;;5.80;;
49384;SDS011;36795;45.028;38.968;2023-08-30T03:21:45;33.60;;;5.82;;
49384;SDS011;36795;45.028;38.968;2023-08-30T03:24:31;22.27;;;4.47;;
49384;SDS011;36795;45.028;38.968;2023-08-30T03:27:17;23.20;;;5.05;;
49384;SDS011;36795;45.028;38.968;2023-08-30T03:30:05;23.58;;;4.18;;
49384;SDS011;36795;45.028;38.968;2023-08-30T03:32:52;18.48;;;3.72;;
49384;SDS011;36795;45.028;38.968;2023-08-30T03:35:39;17.17;;;3.72;;
49384;SDS011;36795;45.028;38.968;2023-08-30T03:38:25;20.52;;;3.67;;
49384;SDS011;36795;45.028;38.968;2023-08-30T03:41:11;24.48;;;5.30;;
49384;SDS011;36795;45.028;38.968;2023-08-30T03:43:57;29.40;;;3.72;;
49384;SDS011;36795;45.028;38.968;2023-08-30T03:46:43;19.33;;;3.90;;
49384;SDS011;36795;45.028;38.968;2023-08-30T03:49:29;25.75;;;4.95;;
49384;SDS011;36795;45.028;38.968;2023-08-30T03:52:15;23.67;;;4.15;;
49384;SDS011;36795;45.028;38.968;2023-08-30T03:55:01;29.48;;;4.85;;
49384;SDS011;36795;45.028;38.968;2023-08-30T03:57:47;27.02;;;5.25;;
49384;SDS011;36795;45.028;38.968;2023-08-30T04:00:37;25.98;;;4.30;;
49384;SDS011;36795;45.028;38.968;2023-08-30T04:03:24;26.58;;;4.00;;
49384;SDS011;36795;45.028;38.968;2023-08-30T04:06:09;20.23;;;4.62;;
49384;SDS011;36795;45.028;38.968;2023-08-30T04:08:55;24.77;;;4.30;;
49384;SDS011;36795;45.028;38.968;2023-08-30T04:11:41;21.17;;;4.07;;
49384;SDS011;36795;45.028;38.968;2023-08-30T04:14:28;20.67;;;4.12;;
49384;SDS011;36795;45.028;38.968;2023-08-30T04:17:15;21.85;;;4.60;;
49384;SDS011;36795;45.028;38.968;2023-08-30T04:20:02;25.58;;;5.75;;
49384;SDS011;36795;45.028;38.968;2023-08-30T04:22:48;21.17;;;3.87;;
49384;SDS011;36795;45.028;38.968;2023-08-30T04:25:35;25.60;;;4.25;;
49384;SDS011;36795;45.028;38.968;2023-08-30T04:28:22;22.87;;;4.20;;
49384;SDS011;36795;45.028;38.968;2023-08-30T04:31:10;23.30;;;4.35;;
49384;SDS011;36795;45.028;38.968;2023-08-30T04:33:57;24.95;;;4.20;;
49384;SDS011;36795;45.028;38.968;2023-08-30T04:36:43;16.20;;;3.50;;
49384;SDS011;36795;45.028;38.968;2023-08-30T04:39:30;21.25;;;3.50;;
49384;SDS011;36795;45.028;38.968;2023-08-30T04:42:17;22.70;;;3.37;;
49384;SDS011;36795;45.028;38.968;2023-08-30T04:45:03;19.48;;;3.17;;
49384;SDS011;36795;45.028;38.968;2023-08-30T04:47:50;12.98;;;2.70;;
49384;SDS011;36795;45.028;38.968;2023-08-30T04:50:36;15.23;;;2.65;;
49384;SDS011;36795;45.028;38.968;2023-08-30T04:53:23;19.12;;;2.60;;
49384;SDS011;36795;45.028;38.968;2023-08-30T04:56:12;16.35;;;2.55;;
49384;SDS011;36795;45.028;38.968;2023-08-30T04:58:59;14.52;;;2.90;;
49384;SDS011;36795;45.028;38.968;2023-08-30T05:01:48;11.07;;;2.67;;
49384;SDS011;36795;45.028;38.968;2023-08-30T05:04:37;13.95;;;2.95;;
49384;SDS011;36795;45.028;38.968;2023-08-30T05:07:24;19.25;;;3.33;;
49384;SDS011;36795;45.028;38.968;2023-08-30T05:10:10;13.32;;;2.85;;
49384;SDS011;36795;45.028;38.968;2023-08-30T05:12:57;18.12;;;2.97;;
49384;SDS011;36795;45.028;38.968;2023-08-30T05:15:43;18.95;;;3.10;;
49384;SDS011;36795;45.028;38.968;2023-08-30T05:18:30;17.15;;;3.05;;
49384;SDS011;36795;45.028;38.968;2023-08-30T05:21:16;20.70;;;3.72;;
49384;SDS011;36795;45.028;38.968;2023-08-30T05:24:03;15.40;;;3.10;;
49384;SDS011;36795;45.028;38.968;2023-08-30T05:26:52;16.73;;;3.08;;
49384;SDS011;36795;45.028;38.968;2023-08-30T05:29:38;13.43;;;2.92;;
49384;SDS011;36795;45.028;38.968;2023-08-30T05:32:25;16.83;;;3.08;;
49384;SDS011;36795;45.028;38.968;2023-08-30T05:35:11;19.10;;;3.50;;
49384;SDS011;36795;45.028;38.968;2023-08-30T05:37:57;16.70;;;3.17;;
49384;SDS011;36795;45.028;38.968;2023-08-30T05:40:43;20.90;;;3.55;;
49384;SDS011;36795;45.028;38.968;2023-08-30T05:43:30;22.73;;;3.53;;
49384;SDS011;36795;45.028;38.968;2023-08-30T05:46:17;18.85;;;3.83;;
49384;SDS011;36795;45.028;38.968;2023-08-30T05:49:03;21.25;;;3.60;;
49384;SDS011;36795;45.028;38.968;2023-08-30T05:51:49;22.15;;;4.03;;
49384;SDS011;36795;45.028;38.968;2023-08-30T05:54:35;21.35;;;3.72;;
49384;SDS011;36795;45.028;38.968;2023-08-30T05:57:21;17.05;;;3.50;;
49384;SDS011;36795;45.028;38.968;2023-08-30T06:00:09;26.30;;;3.67;;
49384;SDS011;36795;45.028;38.968;2023-08-30T06:02:58;24.58;;;3.70;;
49384;SDS011;36795;45.028;38.968;2023-08-30T06:05:44;27.17;;;4.43;;
49384;SDS011;36795;45.028;38.968;2023-08-30T06:08:30;21.30;;;4.25;;
49384;SDS011;36795;45.028;38.968;2023-08-30T06:11:17;21.27;;;3.95;;
49384;SDS011;36795;45.028;38.968;2023-08-30T06:14:13;25.55;;;4.07;;
49384;SDS011;36795;45.028;38.968;2023-08-30T06:16:59;24.60;;;4.00;;
49384;SDS011;36795;45.028;38.968;2023-08-30T06:19:45;26.60;;;4.45;;
49384;SDS011;36795;45.028;38.968;2023-08-30T06:22:32;23.58;;;4.65;;
49384;SDS011;36795;45.028;38.968;2023-08-30T06:25:18;20.85;;;4.20;;
49384;SDS011;36795;45.028;38.968;2023-08-30T06:28:04;22.37;;;4.22;;
49384;SDS011;36795;45.028;38.968;2023-08-30T06:30:51;20.02;;;4.47;;
49384;SDS011;36795;45.028;38.968;2023-08-30T06:33:37;19.40;;;4.60;;
49384;SDS011;36795;45.028;38.968;2023-08-30T06:36:24;26.52;;;4.60;;
49384;SDS011;36795;45.028;38.968;2023-08-30T06:39:10;19.65;;;4.43;;
49384;SDS011;36795;45.028;38.968;2023-08-30T06:47:15;19.62;;;4.37;;
49384;SDS011;36795;45.028;38.968;2023-08-30T06:50:01;19.52;;;4.37;;
49384;SDS011;36795;45.028;38.968;2023-08-30T06:52:49;25.05;;;5.00;;
49384;SDS011;36795;45.028;38.968;2023-08-30T06:55:34;23.00;;;4.47;;
49384;SDS011;36795;45.028;38.968;2023-08-30T06:58:22;26.70;;;5.10;;
49384;SDS011;36795;45.028;38.968;2023-08-30T07:01:07;22.65;;;4.22;;
49384;SDS011;36795;45.028;38.968;2023-08-30T07:03:53;30.35;;;5.10;;
49384;SDS011;36795;45.028;38.968;2023-08-30T07:06:39;21.35;;;4.62;;
49384;SDS011;36795;45.028;38.968;2023-08-30T07:09:25;25.48;;;4.85;;
49384;SDS011;36795;45.028;38.968;2023-08-30T07:12:16;28.67;;;5.30;;
49384;SDS011;36795;45.028;38.968;2023-08-30T07:15:03;30.52;;;4.72;;
49384;SDS011;36795;45.028;38.968;2023-08-30T07:17:49;24.15;;;5.65;;
49384;SDS011;36795;45.028;38.968;2023-08-30T07:20:35;23.50;;;5.22;;
49384;SDS011;36795;45.028;38.968;2023-08-30T07:23:24;25.98;;;4.85;;
49384;SDS011;36795;45.028;38.968;2023-08-30T07:26:10;29.63;;;5.10;;
49384;SDS011;36795;45.028;38.968;2023-08-30T07:28:56;23.52;;;4.97;;
49384;SDS011;36795;45.028;38.968;2023-08-30T07:31:42;23.90;;;4.93;;
49384;SDS011;36795;45.028;38.968;2023-08-30T07:34:27;29.95;;;6.22;;
49384;SDS011;36795;45.028;38.968;2023-08-30T07:37:17;23.08;;;5.37;;
49384;SDS011;36795;45.028;38.968;2023-08-30T07:40:05;24.12;;;5.30;;
49384;SDS011;36795;45.028;38.968;2023-08-30T07:42:52;27.25;;;5.32;;
49384;SDS011;36795;45.028;38.968;2023-08-30T07:45:38;24.20;;;5.97;;
49384;SDS011;36795;45.028;38.968;2023-08-30T07:48:24;20.12;;;6.03;;
49384;SDS011;36795;45.028;38.968;2023-08-30T07:51:10;26.65;;;5.78;;
49384;SDS011;36795;45.028;38.968;2023-08-30T07:53:56;27.15;;;5.72;;
49384;SDS011;36795;45.028;38.968;2023-08-30T07:56:42;24.50;;;6.25;;
49384;SDS011;36795;45.028;38.968;2023-08-30T07:59:29;28.33;;;6.70;;
49384;SDS011;36795;45.028;38.968;2023-08-30T08:02:15;26.35;;;6.70;;
49384;SDS011;36795;45.028;38.968;2023-08-30T08:05:01;27.45;;;6.35;;
49384;SDS011;36795;45.028;38.968;2023-08-30T08:07:51;25.08;;;7.15;;
49384;SDS011;36795;45.028;38.968;2023-08-30T08:10:38;24.67;;;7.90;;
49384;SDS011;36795;45.028;38.968;2023-08-30T08:13:23;26.75;;;7.47;;
49384;SDS011;36795;45.028;38.968;2023-08-30T08:16:10;23.00;;;7.57;;
49384;SDS011;36795;45.028;38.968;2023-08-30T08:18:56;25.65;;;8.80;;
49384;SDS011;36795;45.028;38.968;2023-08-30T08:21:44;27.37;;;8.50;;
49384;SDS011;36795;45.028;38.968;2023-08-30T08:24:30;33.13;;;8.88;;
49384;SDS011;36795;45.028;38.968;2023-08-30T08:27:17;26.05;;;9.30;;
49384;SDS011;36795;45.028;38.968;2023-08-30T08:30:04;28.98;;;10.68;;
49384;SDS011;36795;45.028;38.968;2023-08-30T08:32:50;31.02;;;10.50;;
49384;SDS011;36795;45.028;38.968;2023-08-30T08:35:36;27.35;;;9.85;;
49384;SDS011;36795;45.028;38.968;2023-08-30T08:38:22;27.33;;;8.25;;
49384;SDS011;36795;45.028;38.968;2023-08-30T08:41:09;31.25;;;10.43;;
49384;SDS011;36795;45.028;38.968;2023-08-30T08:43:58;25.05;;;9.73;;
49384;SDS011;36795;45.028;38.968;2023-08-30T08:46:45;29.40;;;8.85;;
49384;SDS011;36795;45.028;38.968;2023-08-30T08:49:33;29.17;;;8.88;;
49384;SDS011;36795;45.028;38.968;2023-08-30T08:52:19;35.60;;;8.93;;
49384;SDS011;36795;45.028;38.968;2023-08-30T08:55:05;25.90;;;8.65;;
49384;SDS011;36795;45.028;38.968;2023-08-30T08:57:53;28.52;;;9.15;;
49384;SDS011;36795;45.028;38.968;2023-08-30T09:00:39;25.02;;;7.95;;
49384;SDS011;36795;45.028;38.968;2023-08-30T09:03:29;23.75;;;8.18;;
49384;SDS011;36795;45.028;38.968;2023-08-30T09:06:16;30.73;;;8.40;;
49384;SDS011;36795;45.028;38.968;2023-08-30T09:09:03;29.85;;;8.02;;
49384;SDS011;36795;45.028;38.968;2023-08-30T09:11:50;26.90;;;7.40;;
49384;SDS011;36795;45.028;38.968;2023-08-30T09:14:36;23.90;;;7.90;;
49384;SDS011;36795;45.028;38.968;2023-08-30T09:17:23;26.42;;;7.62;;
49384;SDS011;36795;45.028;38.968;2023-08-30T09:20:09;24.25;;;9.48;;
49384;SDS011;36795;45.028;38.968;2023-08-30T09:22:56;26.20;;;7.32;;
49384;SDS011;36795;45.028;38.968;2023-08-30T09:25:42;25.30;;;7.70;;
49384;SDS011;36795;45.028;38.968;2023-08-30T09:28:31;20.65;;;7.28;;
49384;SDS011;36795;45.028;38.968;2023-08-30T09:31:32;24.20;;;7.87;;
49384;SDS011;36795;45.028;38.968;2023-08-30T09:34:21;24.33;;;6.87;;
49384;SDS011;36795;45.028;38.968;2023-08-30T09:37:09;21.00;;;7.07;;
49384;SDS011;36795;45.028;38.968;2023-08-30T09:40:08;23.33;;;7.43;;
49384;SDS011;36795;45.028;38.968;2023-08-30T09:42:54;32.45;;;9.82;;
49384;SDS011;36795;45.028;38.968;2023-08-30T09:45:40;27.50;;;7.15;;
49384;SDS011;36795;45.028;38.968;2023-08-30T09:48:29;21.52;;;6.28;;
49384;SDS011;36795;45.028;38.968;2023-08-30T09:51:16;24.12;;;6.28;;
49384;SDS011;36795;45.028;38.968;2023-08-30T09:54:05;24.70;;;8.23;;
49384;SDS011;36795;45.028;38.968;2023-08-30T09:56:56;24.20;;;7.80;;
49384;SDS011;36795;45.028;38.968;2023-08-30T09:59:44;25.30;;;7.15;;
49384;SDS011;36795;45.028;38.968;2023-08-30T10:02:31;29.02;;;7.25;;
49384;SDS011;36795;45.028;38.968;2023-08-30T10:05:19;23.67;;;6.60;;
49384;SDS011;36795;45.028;38.968;2023-08-30T10:08:06;26.17;;;11.55;;
49384;SDS011;36795;45.028;38.968;2023-08-30T10:10:54;26.08;;;6.97;;
49384;SDS011;36795;45.028;38.968;2023-08-30T10:13:42;25.08;;;6.82;;
49384;SDS011;36795;45.028;38.968;2023-08-30T10:16:30;25.98;;;7.62;;
49384;SDS011;36795;45.028;38.968;2023-08-30T10:19:31;22.92;;;6.70;;
49384;SDS011;36795;45.028;38.968;2023-08-30T10:22:18;22.75;;;6.62;;
49384;SDS011;36795;45.028;38.968;2023-08-30T10:25:10;20.67;;;6.28;;
49384;SDS011;36795;45.028;38.968;2023-08-30T10:28:08;26.08;;;6.57;;
49384;SDS011;36795;45.028;38.968;2023-08-30T10:30:54;19.27;;;6.32;;
49384;SDS011;36795;45.028;38.968;2023-08-30T10:33:48;22.58;;;6.03;;
49384;SDS011;36795;45.028;38.968;2023-08-30T10:36:38;23.35;;;6.00;;
49384;SDS011;36795;45.028;38.968;2023-08-30T10:39:27;23.92;;;5.60;;
49384;SDS011;36795;45.028;38.968;2023-08-30T10:42:22;21.77;;;6.00;;
49384;SDS011;36795;45.028;38.968;2023-08-30T10:45:09;22.62;;;6.30;;
49384;SDS011;36795;45.028;38.968;2023-08-30T10:47:56;24.02;;;6.57;;
49384;SDS011;36795;45.028;38.968;2023-08-30T10:50:43;20.98;;;5.50;;
49384;SDS011;36795;45.028;38.968;2023-08-30T10:53:29;26.52;;;5.95;;
49384;SDS011;36795;45.028;38.968;2023-08-30T10:56:16;20.52;;;5.90;;
49384;SDS011;36795;45.028;38.968;2023-08-30T10:59:02;24.80;;;6.03;;
49384;SDS011;36795;45.028;38.968;2023-08-30T11:01:48;19.80;;;5.30;;
49384;SDS011;36795;45.028;38.968;2023-08-30T11:04:39;23.42;;;6.90;;
49384;SDS011;36795;45.028;38.968;2023-08-30T11:07:27;22.25;;;5.65;;
49384;SDS011;36795;45.028;38.968;2023-08-30T11:10:13;30.35;;;5.65;;
49384;SDS011;36795;45.028;38.968;2023-08-30T11:12:59;23.27;;;6.25;;
49384;SDS011;36795;45.028;38.968;2023-08-30T11:15:47;19.05;;;5.30;;
49384;SDS011;36795;45.028;38.968;2023-08-30T11:18:36;20.70;;;5.72;;
49384;SDS011;36795;45.028;38.968;2023-08-30T11:21:24;25.40;;;5.60;;
49384;SDS011;36795;45.028;38.968;2023-08-30T11:24:10;18.02;;;5.20;;
49384;SDS011;36795;45.028;38.968;2023-08-30T11:26:57;26.23;;;5.93;;
49384;SDS011;36795;45.028;38.968;2023-08-30T11:29:43;22.10;;;5.75;;
49384;SDS011;36795;45.028;38.968;2023-08-30T11:32:33;20.42;;;5.18;;
49384;SDS011;36795;45.028;38.968;2023-08-30T11:35:22;22.65;;;5.55;;
49384;SDS011;36795;45.028;38.968;2023-08-30T11:38:09;18.10;;;5.15;;
49384;SDS011;36795;45.028;38.968;2023-08-30T11:40:55;20.48;;;5.65;;
49384;SDS011;36795;45.028;38.968;2023-08-30T11:43:43;21.48;;;5.78;;
49384;SDS011;36795;45.028;38.968;2023-08-30T11:46:30;18.77;;;5.60;;
49384;SDS011;36795;45.028;38.968;2023-08-30T11:49:17;26.05;;;6.87;;
49384;SDS011;36795;45.028;38.968;2023-08-30T11:52:03;21.77;;;5.65;;
49384;SDS011;36795;45.028;38.968;2023-08-30T11:54:50;22.35;;;6.53;;
49384;SDS011;36795;45.028;38.968;2023-08-30T11:57:36;26.15;;;6.40;;
49384;SDS011;36795;45.028;38.968;2023-08-30T12:00:22;21.35;;;5.55;;
49384;SDS011;36795;45.028;38.968;2023-08-30T12:03:09;22.13;;;5.80;;
49384;SDS011;36795;45.028;38.968;2023-08-30T12:05:58;19.37;;;5.53;;
49384;SDS011;36795;45.028;38.968;2023-08-30T12:08:45;19.52;;;5.70;;
49384;SDS011;36795;45.028;38.968;2023-08-30T12:11:31;21.65;;;5.55;;
49384;SDS011;36795;45.028;38.968;2023-08-30T12:14:17;21.80;;;5.45;;
49384;SDS011;36795;45.028;38.968;2023-08-30T12:17:03;15.23;;;4.90;;
49384;SDS011;36795;45.028;38.968;2023-08-30T12:19:57;21.35;;;5.20;;
49384;SDS011;36795;45.028;38.968;2023-08-30T12:25:29;20.00;;;5.57;;
49384;SDS011;36795;45.028;38.968;2023-08-30T12:28:17;20.33;;;6.15;;
49384;SDS011;36795;45.028;38.968;2023-08-30T12:31:03;19.27;;;5.57;;
49384;SDS011;36795;45.028;38.968;2023-08-30T12:33:50;18.23;;;4.85;;
49384;SDS011;36795;45.028;38.968;2023-08-30T12:36:36;22.23;;;5.60;;
49384;SDS011;36795;45.028;38.968;2023-08-30T12:39:21;21.80;;;5.72;;
49384;SDS011;36795;45.028;38.968;2023-08-30T12:42:08;26.25;;;7.30;;
49384;SDS011;36795;45.028;38.968;2023-08-30T12:44:53;23.40;;;6.00;;
49384;SDS011;36795;45.028;38.968;2023-08-30T12:47:40;22.73;;;5.90;;
49384;SDS011;36795;45.028;38.968;2023-08-30T12:50:25;21.70;;;5.50;;
49384;SDS011;36795;45.028;38.968;2023-08-30T12:53:11;21.30;;;5.55;;
49384;SDS011;36795;45.028;38.968;2023-08-30T12:55:57;18.17;;;5.60;;
49384;SDS011;36795;45.028;38.968;2023-08-30T12:58:43;22.02;;;5.95;;
49384;SDS011;36795;45.028;38.968;2023-08-30T13:01:30;21.65;;;5.80;;
49384;SDS011;36795;45.028;38.968;2023-08-30T13:04:16;26.75;;;5.95;;
49384;SDS011;36795;45.028;38.968;2023-08-30T13:07:02;19.58;;;5.22;;
49384;SDS011;36795;45.028;38.968;2023-08-30T13:09:48;20.35;;;5.65;;
49384;SDS011;36795;45.028;38.968;2023-08-30T13:12:34;22.90;;;6.00;;
49384;SDS011;36795;45.028;38.968;2023-08-30T13:15:20;19.25;;;5.50;;
49384;SDS011;36795;45.028;38.968;2023-08-30T13:18:05;22.10;;;5.70;;
49384;SDS011;36795;45.028;38.968;2023-08-30T13:20:55;19.77;;;5.85;;
49384;SDS011;36795;45.028;38.968;2023-08-30T13:23:40;17.50;;;5.60;;
49384;SDS011;36795;45.028;38.968;2023-08-30T13:26:27;23.77;;;9.15;;
49384;SDS011;36795;45.028;38.968;2023-08-30T13:29:12;20.85;;;5.50;;
49384;SDS011;36795;45.028;38.968;2023-08-30T13:32:00;20.90;;;5.85;;
49384;SDS011;36795;45.028;38.968;2023-08-30T13:34:46;22.08;;;5.50;;
49384;SDS011;36795;45.028;38.968;2023-08-30T13:37:33;23.65;;;6.22;;
49384;SDS011;36795;45.028;38.968;2023-08-30T13:40:18;26.65;;;6.53;;
49384;SDS011;36795;45.028;38.968;2023-08-30T13:43:05;23.10;;;6.85;;
49384;SDS011;36795;45.028;38.968;2023-08-30T13:45:58;20.90;;;6.25;;
49384;SDS011;36795;45.028;38.968;2023-08-30T13:48:45;26.45;;;7.25;;
49384;SDS011;36795;45.028;38.968;2023-08-30T13:51:32;26.75;;;6.78;;
49384;SDS011;36795;45.028;38.968;2023-08-30T13:54:18;26.80;;;6.80;;
49384;SDS011;36795;45.028;38.968;2023-08-30T13:57:04;21.50;;;6.00;;
49384;SDS011;36795;45.028;38.968;2023-08-30T13:59:50;23.83;;;6.22;;
49384;SDS011;36795;45.028;38.968;2023-08-30T14:02:36;26.73;;;6.65;;
49384;SDS011;36795;45.028;38.968;2023-08-30T14:05:22;21.65;;;7.82;;
49384;SDS011;36795;45.028;38.968;2023-08-30T14:08:08;24.45;;;7.20;;
49384;SDS011;36795;45.028;38.968;2023-08-30T14:10:54;23.90;;;7.30;;
49384;SDS011;36795;45.028;38.968;2023-08-30T14:13:40;32.20;;;7.43;;
49384;SDS011;36795;45.028;38.968;2023-08-30T14:16:27;27.77;;;7.95;;
49384;SDS011;36795;45.028;38.968;2023-08-30T14:19:15;24.75;;;8.20;;
49384;SDS011;36795;45.028;38.968;2023-08-30T14:22:01;23.08;;;8.43;;
49384;SDS011;36795;45.028;38.968;2023-08-30T14:24:48;27.42;;;7.57;;
49384;SDS011;36795;45.028;38.968;2023-08-30T14:27:35;26.85;;;9.05;;
49384;SDS011;36795;45.028;38.968;2023-08-30T14:30:20;30.05;;;10.15;;
49384;SDS011;36795;45.028;38.968;2023-08-30T14:33:07;24.73;;;9.27;;
49384;SDS011;36795;45.028;38.968;2023-08-30T14:35:54;25.65;;;8.55;;
49384;SDS011;36795;45.028;38.968;2023-08-30T14:38:42;26.50;;;8.85;;
49384;SDS011;36795;45.028;38.968;2023-08-30T14:41:28;28.75;;;9.75;;
49384;SDS011;36795;45.028;38.968;2023-08-30T14:44:14;23.05;;;8.93;;
49384;SDS011;36795;45.028;38.968;2023-08-30T14:47:00;27.98;;;9.85;;
49384;SDS011;36795;45.028;38.968;2023-08-30T14:49:46;26.42;;;9.32;;
49384;SDS011;36795;45.028;38.968;2023-08-30T14:52:32;30.70;;;8.68;;
49384;SDS011;36795;45.028;38.968;2023-08-30T14:55:18;22.33;;;8.25;;
49384;SDS011;36795;45.028;38.968;2023-08-30T14:58:04;26.52;;;8.60;;
49384;SDS011;36795;45.028;38.968;2023-08-30T15:00:50;31.10;;;8.82;;
49384;SDS011;36795;45.028;38.968;2023-08-30T15:03:36;24.15;;;8.55;;
49384;SDS011;36795;45.028;38.968;2023-08-30T15:06:22;25.52;;;8.50;;
49384;SDS011;36795;45.028;38.968;2023-08-30T15:09:09;25.05;;;8.70;;
49384;SDS011;36795;45.028;38.968;2023-08-30T15:11:56;29.37;;;8.90;;
49384;SDS011;36795;45.028;38.968;2023-08-30T15:14:45;27.70;;;8.43;;
49384;SDS011;36795;45.028;38.968;2023-08-30T15:17:31;23.35;;;8.15;;
49384;SDS011;36795;45.028;38.968;2023-08-30T15:20:17;23.05;;;8.25;;
49384;SDS011;36795;45.028;38.968;2023-08-30T15:23:03;26.35;;;7.95;;
49384;SDS011;36795;45.028;38.968;2023-08-30T15:25:49;26.50;;;9.10;;
49384;SDS011;36795;45.028;38.968;2023-08-30T15:28:35;29.15;;;8.77;;
49384;SDS011;36795;45.028;38.968;2023-08-30T15:31:21;30.95;;;9.52;;
49384;SDS011;36795;45.028;38.968;2023-08-30T15:34:07;31.12;;;16.02;;
49384;SDS011;36795;45.028;38.968;2023-08-30T15:36:53;25.92;;;8.63;;
49384;SDS011;36795;45.028;38.968;2023-08-30T15:39:39;22.90;;;8.82;;
49384;SDS011;36795;45.028;38.968;2023-08-30T15:42:25;27.27;;;9.45;;
49384;SDS011;36795;45.028;38.968;2023-08-30T15:45:11;23.95;;;8.88;;
49384;SDS011;36795;45.028;38.968;2023-08-30T15:47:57;25.48;;;9.40;;
49384;SDS011;36795;45.028;38.968;2023-08-30T15:50:44;27.62;;;9.55;;
49384;SDS011;36795;45.028;38.968;2023-08-30T15:53:30;33.55;;;10.45;;
49384;SDS011;36795;45.028;38.968;2023-08-30T15:56:16;24.35;;;9.18;;
49384;SDS011;36795;45.028;38.968;2023-08-30T15:59:04;29.58;;;9.88;;
49384;SDS011;36795;45.028;38.968;2023-08-30T16:01:50;28.23;;;9.63;;
49384;SDS011;36795;45.028;38.968;2023-08-30T16:04:36;30.40;;;9.88;;
49384;SDS011;36795;45.028;38.968;2023-08-30T16:07:22;31.90;;;10.07;;
49384;SDS011;36795;45.028;38.968;2023-08-30T16:10:08;32.30;;;9.95;;
49384;SDS011;36795;45.028;38.968;2023-08-30T16:12:54;30.05;;;10.57;;
49384;SDS011;36795;45.028;38.968;2023-08-30T16:15:40;29.27;;;10.00;;
49384;SDS011;36795;45.028;38.968;2023-08-30T16:18:27;32.40;;;10.55;;
49384;SDS011;36795;45.028;38.968;2023-08-30T16:21:17;34.05;;;10.45;;
49384;SDS011;36795;45.028;38.968;2023-08-30T16:24:03;26.73;;;11.90;;
49384;SDS011;36795;45.028;38.968;2023-08-30T16:26:52;30.40;;;11.57;;
49384;SDS011;36795;45.028;38.968;2023-08-30T16:29:40;34.33;;;12.48;;